sensor_id;sensor_type;location;lat;lon;timestamp;P1;durP1;ratioP1;P2;durP2;ratioP2
52854;SDS011;38719;51.418;7.286;2023-05-10T00:00:02;3.10;;;2.75;;
52854;SDS011;38719;51.418;7.286;2023-05-10T00:02:30;4.63;;;2.80;;
52854;SDS011;38719;51.418;7.286;2023-05-10T00:04:59;3.05;;;2.80;;
52854;SDS011;38719;51.418;7.286;2023-05-10T00:07:27;3.17;;;2.65;;
52854;SDS011;38719;51.418;7.286;2023-05-10T00:09:55;5.53;;;2.67;;
52854;SDS011;38719;51.418;7.286;2023-05-10T00:12:22;3.38;;;2.70;;
52854;SDS011;38719;51.418;7.286;2023-05-10T00:14:50;3.15;;;2.65;;
52854;SDS011;38719;51.418;7.286;2023-05-10T00:17:17;3.10;;;2.65;;
52854;SDS011;38719;51.418;7.286;2023-05-10T00:19:45;3.30;;;2.50;;
52854;SDS011;38719;51.418;7.286;2023-05-10T00:22:13;2.97;;;2.67;;
52854;SDS011;38719;51.418;7.286;2023-05-10T00:24:41;2.67;;;2.40;;
52854;SDS011;38719;51.418;7.286;2023-05-10T00:27:08;6.03;;;2.10;;
52854;SDS011;38719;51.418;7.286;2023-05-10T00:29:36;2.55;;;2.17;;
52854;SDS011;38719;51.418;7.286;2023-05-10T00:32:04;2.90;;;2.17;;
52854;SDS011;38719;51.418;7.286;2023-05-10T00:34:32;2.50;;;2.17;;
52854;SDS011;38719;51.418;7.286;2023-05-10T00:36:59;3.13;;;2.40;;
52854;SDS011;38719;51.418;7.286;2023-05-10T00:39:28;3.08;;;2.70;;
52854;SDS011;38719;51.418;7.286;2023-05-10T00:41:56;3.90;;;3.40;;
52854;SDS011;38719;51.418;7.286;2023-05-10T00:44:24;4.82;;;3.63;;
52854;SDS011;38719;51.418;7.286;2023-05-10T00:46:51;5.60;;;4.20;;
52854;SDS011;38719;51.418;7.286;2023-05-10T00:49:19;5.55;;;4.32;;
52854;SDS011;38719;51.418;7.286;2023-05-10T00:51:48;4.63;;;4.15;;
52854;SDS011;38719;51.418;7.286;2023-05-10T00:54:16;8.52;;;4.20;;
52854;SDS011;38719;51.418;7.286;2023-05-10T00:56:45;5.53;;;4.55;;
52854;SDS011;38719;51.418;7.286;2023-05-10T00:59:15;6.40;;;4.82;;
52854;SDS011;38719;51.418;7.286;2023-05-10T01:01:43;7.40;;;5.05;;
52854;SDS011;38719;51.418;7.286;2023-05-10T01:04:11;9.50;;;5.40;;
52854;SDS011;38719;51.418;7.286;2023-05-10T01:06:40;7.47;;;5.13;;
52854;SDS011;38719;51.418;7.286;2023-05-10T01:09:08;8.32;;;5.10;;
52854;SDS011;38719;51.418;7.286;2023-05-10T01:11:38;7.55;;;5.50;;
52854;SDS011;38719;51.418;7.286;2023-05-10T01:14:08;8.13;;;5.75;;
52854;SDS011;38719;51.418;7.286;2023-05-10T01:16:37;8.20;;;6.10;;
52854;SDS011;38719;51.418;7.286;2023-05-10T01:19:06;7.72;;;5.70;;
52854;SDS011;38719;51.418;7.286;2023-05-10T01:21:43;7.57;;;5.72;;
52854;SDS011;38719;51.418;7.286;2023-05-10T01:27:14;7.07;;;5.30;;
52854;SDS011;38719;51.418;7.286;2023-05-10T01:33:11;7.03;;;5.15;;
52854;SDS011;38719;51.418;7.286;2023-05-10T01:38:16;7.35;;;5.40;;
52854;SDS011;38719;51.418;7.286;2023-05-10T01:40:48;7.95;;;5.60;;
52854;SDS011;38719;51.418;7.286;2023-05-10T01:43:25;7.45;;;5.88;;
52854;SDS011;38719;51.418;7.286;2023-05-10T01:45:58;7.60;;;5.72;;
52854;SDS011;38719;51.418;7.286;2023-05-10T01:48:31;7.13;;;5.55;;
52854;SDS011;38719;51.418;7.286;2023-05-10T01:51:00;7.38;;;5.88;;
52854;SDS011;38719;51.418;7.286;2023-05-10T01:53:27;13.23;;;6.28;;
52854;SDS011;38719;51.418;7.286;2023-05-10T01:55:56;8.20;;;5.72;;
52854;SDS011;38719;51.418;7.286;2023-05-10T01:58:27;9.00;;;5.75;;
52854;SDS011;38719;51.418;7.286;2023-05-10T02:00:57;6.88;;;5.40;;
52854;SDS011;38719;51.418;7.286;2023-05-10T02:03:27;7.05;;;5.68;;
52854;SDS011;38719;51.418;7.286;2023-05-10T02:05:58;8.15;;;5.50;;
52854;SDS011;38719;51.418;7.286;2023-05-10T02:08:26;10.07;;;5.15;;
52854;SDS011;38719;51.418;7.286;2023-05-10T02:10:54;6.30;;;5.10;;
52854;SDS011;38719;51.418;7.286;2023-05-10T02:13:23;5.45;;;4.88;;
52854;SDS011;38719;51.418;7.286;2023-05-10T02:15:53;8.55;;;5.22;;
52854;SDS011;38719;51.418;7.286;2023-05-10T02:18:22;7.72;;;5.65;;
52854;SDS011;38719;51.418;7.286;2023-05-10T02:20:50;6.10;;;4.80;;
52854;SDS011;38719;51.418;7.286;2023-05-10T02:23:22;7.43;;;5.22;;
52854;SDS011;38719;51.418;7.286;2023-05-10T02:25:50;7.47;;;5.32;;
52854;SDS011;38719;51.418;7.286;2023-05-10T02:28:19;5.97;;;4.90;;
52854;SDS011;38719;51.418;7.286;2023-05-10T02:30:48;6.50;;;5.30;;
52854;SDS011;38719;51.418;7.286;2023-05-10T02:33:16;8.40;;;5.43;;
52854;SDS011;38719;51.418;7.286;2023-05-10T02:35:45;6.28;;;4.63;;
52854;SDS011;38719;51.418;7.286;2023-05-10T02:38:14;6.25;;;4.65;;
52854;SDS011;38719;51.418;7.286;2023-05-10T02:40:44;5.80;;;4.43;;
52854;SDS011;38719;51.418;7.286;2023-05-10T02:43:14;7.20;;;4.95;;
52854;SDS011;38719;51.418;7.286;2023-05-10T02:45:44;6.97;;;5.18;;
52854;SDS011;38719;51.418;7.286;2023-05-10T02:48:15;7.45;;;5.25;;
52854;SDS011;38719;51.418;7.286;2023-05-10T02:50:44;8.27;;;5.68;;
52854;SDS011;38719;51.418;7.286;2023-05-10T02:53:14;8.20;;;5.57;;
52854;SDS011;38719;51.418;7.286;2023-05-10T02:55:48;8.63;;;5.78;;
52854;SDS011;38719;51.418;7.286;2023-05-10T02:58:18;9.98;;;6.50;;
52854;SDS011;38719;51.418;7.286;2023-05-10T03:00:46;11.68;;;7.18;;
52854;SDS011;38719;51.418;7.286;2023-05-10T03:03:14;9.27;;;6.50;;
52854;SDS011;38719;51.418;7.286;2023-05-10T03:05:41;10.88;;;6.18;;
52854;SDS011;38719;51.418;7.286;2023-05-10T03:08:09;9.32;;;6.20;;
52854;SDS011;38719;51.418;7.286;2023-05-10T03:10:47;9.90;;;6.50;;
52854;SDS011;38719;51.418;7.286;2023-05-10T03:15:57;12.10;;;7.57;;
52854;SDS011;38719;51.418;7.286;2023-05-10T03:18:28;13.55;;;7.75;;
52854;SDS011;38719;51.418;7.286;2023-05-10T03:21:01;11.38;;;7.32;;
52854;SDS011;38719;51.418;7.286;2023-05-10T03:23:34;13.45;;;7.55;;
52854;SDS011;38719;51.418;7.286;2023-05-10T03:26:04;10.95;;;7.75;;
52854;SDS011;38719;51.418;7.286;2023-05-10T03:28:32;12.68;;;8.30;;
52854;SDS011;38719;51.418;7.286;2023-05-10T03:31:01;12.80;;;7.93;;
52854;SDS011;38719;51.418;7.286;2023-05-10T03:33:31;14.60;;;8.32;;
52854;SDS011;38719;51.418;7.286;2023-05-10T03:35:59;17.55;;;9.38;;
52854;SDS011;38719;51.418;7.286;2023-05-10T03:38:26;17.92;;;9.20;;
52854;SDS011;38719;51.418;7.286;2023-05-10T03:40:55;16.77;;;8.52;;
52854;SDS011;38719;51.418;7.286;2023-05-10T03:43:24;14.30;;;8.45;;
52854;SDS011;38719;51.418;7.286;2023-05-10T03:45:52;17.23;;;9.73;;
52854;SDS011;38719;51.418;7.286;2023-05-10T03:48:19;17.77;;;9.15;;
52854;SDS011;38719;51.418;7.286;2023-05-10T03:50:47;14.50;;;9.07;;
52854;SDS011;38719;51.418;7.286;2023-05-10T03:53:15;14.63;;;9.48;;
52854;SDS011;38719;51.418;7.286;2023-05-10T03:55:42;17.17;;;10.25;;
52854;SDS011;38719;51.418;7.286;2023-05-10T03:58:11;22.20;;;10.60;;
52854;SDS011;38719;51.418;7.286;2023-05-10T04:00:40;21.75;;;10.05;;
52854;SDS011;38719;51.418;7.286;2023-05-10T04:03:09;20.65;;;11.25;;
52854;SDS011;38719;51.418;7.286;2023-05-10T04:05:37;21.95;;;11.63;;
52854;SDS011;38719;51.418;7.286;2023-05-10T04:08:05;21.92;;;10.30;;
52854;SDS011;38719;51.418;7.286;2023-05-10T04:10:33;18.08;;;10.82;;
52854;SDS011;38719;51.418;7.286;2023-05-10T04:13:00;24.85;;;10.82;;
52854;SDS011;38719;51.418;7.286;2023-05-10T04:15:28;21.10;;;10.32;;
52854;SDS011;38719;51.418;7.286;2023-05-10T04:17:57;19.20;;;10.55;;
52854;SDS011;38719;51.418;7.286;2023-05-10T04:20:24;18.33;;;11.20;;
52854;SDS011;38719;51.418;7.286;2023-05-10T04:22:52;18.45;;;11.02;;
52854;SDS011;38719;51.418;7.286;2023-05-10T04:25:19;15.23;;;10.43;;
52854;SDS011;38719;51.418;7.286;2023-05-10T04:27:47;20.33;;;11.02;;
52854;SDS011;38719;51.418;7.286;2023-05-10T04:30:14;16.67;;;10.43;;
52854;SDS011;38719;51.418;7.286;2023-05-10T04:32:42;16.95;;;11.10;;
52854;SDS011;38719;51.418;7.286;2023-05-10T04:35:11;19.50;;;12.05;;
52854;SDS011;38719;51.418;7.286;2023-05-10T04:37:40;17.38;;;10.82;;
52854;SDS011;38719;51.418;7.286;2023-05-10T04:40:09;19.15;;;11.25;;
52854;SDS011;38719;51.418;7.286;2023-05-10T04:42:39;17.83;;;11.40;;
52854;SDS011;38719;51.418;7.286;2023-05-10T04:45:07;17.45;;;11.10;;
52854;SDS011;38719;51.418;7.286;2023-05-10T04:47:36;17.35;;;10.75;;
52854;SDS011;38719;51.418;7.286;2023-05-10T04:50:04;22.50;;;11.68;;
52854;SDS011;38719;51.418;7.286;2023-05-10T04:52:34;23.92;;;12.18;;
52854;SDS011;38719;51.418;7.286;2023-05-10T04:55:02;21.85;;;13.20;;
52854;SDS011;38719;51.418;7.286;2023-05-10T04:57:30;23.02;;;12.43;;
52854;SDS011;38719;51.418;7.286;2023-05-10T04:59:58;24.73;;;13.57;;
52854;SDS011;38719;51.418;7.286;2023-05-10T05:02:26;22.58;;;13.65;;
52854;SDS011;38719;51.418;7.286;2023-05-10T05:04:55;25.25;;;14.30;;
52854;SDS011;38719;51.418;7.286;2023-05-10T05:07:23;26.77;;;14.75;;
52854;SDS011;38719;51.418;7.286;2023-05-10T05:09:52;30.52;;;16.17;;
52854;SDS011;38719;51.418;7.286;2023-05-10T05:12:20;27.20;;;15.15;;
52854;SDS011;38719;51.418;7.286;2023-05-10T05:14:47;33.88;;;16.05;;
52854;SDS011;38719;51.418;7.286;2023-05-10T05:17:15;25.42;;;15.50;;
52854;SDS011;38719;51.418;7.286;2023-05-10T05:19:42;28.00;;;15.05;;
52854;SDS011;38719;51.418;7.286;2023-05-10T05:22:10;31.15;;;15.77;;
52854;SDS011;38719;51.418;7.286;2023-05-10T05:24:37;35.97;;;17.23;;
52854;SDS011;38719;51.418;7.286;2023-05-10T05:27:06;32.55;;;16.85;;
52854;SDS011;38719;51.418;7.286;2023-05-10T05:29:34;31.40;;;16.85;;
52854;SDS011;38719;51.418;7.286;2023-05-10T05:32:01;31.73;;;17.38;;
52854;SDS011;38719;51.418;7.286;2023-05-10T05:34:29;31.17;;;16.42;;
52854;SDS011;38719;51.418;7.286;2023-05-10T05:36:56;28.52;;;17.08;;
52854;SDS011;38719;51.418;7.286;2023-05-10T05:39:24;29.42;;;15.70;;
52854;SDS011;38719;51.418;7.286;2023-05-10T05:41:51;35.00;;;17.98;;
52854;SDS011;38719;51.418;7.286;2023-05-10T05:44:20;32.90;;;16.70;;
52854;SDS011;38719;51.418;7.286;2023-05-10T05:46:48;35.88;;;17.83;;
52854;SDS011;38719;51.418;7.286;2023-05-10T05:49:15;39.22;;;18.75;;
52854;SDS011;38719;51.418;7.286;2023-05-10T05:51:42;34.88;;;18.90;;
52854;SDS011;38719;51.418;7.286;2023-05-10T05:54:10;32.85;;;17.17;;
52854;SDS011;38719;51.418;7.286;2023-05-10T05:56:37;40.42;;;18.15;;
52854;SDS011;38719;51.418;7.286;2023-05-10T05:59:05;33.20;;;17.30;;
52854;SDS011;38719;51.418;7.286;2023-05-10T06:01:34;29.48;;;16.55;;
52854;SDS011;38719;51.418;7.286;2023-05-10T06:04:01;36.67;;;18.33;;
52854;SDS011;38719;51.418;7.286;2023-05-10T06:06:29;37.10;;;19.95;;
52854;SDS011;38719;51.418;7.286;2023-05-10T06:08:58;37.92;;;18.83;;
52854;SDS011;38719;51.418;7.286;2023-05-10T06:11:25;32.05;;;17.55;;
52854;SDS011;38719;51.418;7.286;2023-05-10T06:13:53;36.85;;;19.30;;
52854;SDS011;38719;51.418;7.286;2023-05-10T06:16:20;36.92;;;19.27;;
52854;SDS011;38719;51.418;7.286;2023-05-10T06:18:49;32.88;;;18.63;;
52854;SDS011;38719;51.418;7.286;2023-05-10T06:21:17;37.13;;;18.70;;
52854;SDS011;38719;51.418;7.286;2023-05-10T06:23:44;35.20;;;18.98;;
52854;SDS011;38719;51.418;7.286;2023-05-10T06:26:12;35.42;;;18.58;;
52854;SDS011;38719;51.418;7.286;2023-05-10T06:28:40;30.63;;;17.35;;
52854;SDS011;38719;51.418;7.286;2023-05-10T06:31:07;33.75;;;19.23;;
52854;SDS011;38719;51.418;7.286;2023-05-10T06:33:35;33.33;;;18.30;;
52854;SDS011;38719;51.418;7.286;2023-05-10T06:36:04;39.67;;;18.40;;
52854;SDS011;38719;51.418;7.286;2023-05-10T06:38:31;35.00;;;18.38;;
52854;SDS011;38719;51.418;7.286;2023-05-10T06:40:59;33.03;;;17.65;;
52854;SDS011;38719;51.418;7.286;2023-05-10T06:43:26;30.15;;;17.83;;
52854;SDS011;38719;51.418;7.286;2023-05-10T06:45:54;33.35;;;17.55;;
52854;SDS011;38719;51.418;7.286;2023-05-10T06:48:22;31.92;;;17.95;;
52854;SDS011;38719;51.418;7.286;2023-05-10T06:50:49;31.10;;;17.92;;
52854;SDS011;38719;51.418;7.286;2023-05-10T06:53:18;34.63;;;16.95;;
52854;SDS011;38719;51.418;7.286;2023-05-10T06:55:46;31.42;;;16.92;;
52854;SDS011;38719;51.418;7.286;2023-05-10T06:58:13;32.72;;;17.08;;
52854;SDS011;38719;51.418;7.286;2023-05-10T07:00:41;31.38;;;17.20;;
52854;SDS011;38719;51.418;7.286;2023-05-10T07:03:09;28.23;;;17.15;;
52854;SDS011;38719;51.418;7.286;2023-05-10T07:05:37;31.38;;;16.80;;
52854;SDS011;38719;51.418;7.286;2023-05-10T07:08:05;30.55;;;17.48;;
52854;SDS011;38719;51.418;7.286;2023-05-10T07:10:34;30.92;;;18.10;;
52854;SDS011;38719;51.418;7.286;2023-05-10T07:13:01;34.67;;;17.23;;
52854;SDS011;38719;51.418;7.286;2023-05-10T07:15:29;29.80;;;17.20;;
52854;SDS011;38719;51.418;7.286;2023-05-10T07:17:56;29.33;;;16.70;;
52854;SDS011;38719;51.418;7.286;2023-05-10T07:20:24;31.35;;;16.75;;
52854;SDS011;38719;51.418;7.286;2023-05-10T07:22:52;30.55;;;17.15;;
52854;SDS011;38719;51.418;7.286;2023-05-10T07:25:19;32.65;;;17.92;;
52854;SDS011;38719;51.418;7.286;2023-05-10T07:27:48;33.35;;;18.60;;
52854;SDS011;38719;51.418;7.286;2023-05-10T07:30:17;30.95;;;18.30;;
52854;SDS011;38719;51.418;7.286;2023-05-10T07:32:44;38.70;;;20.65;;
52854;SDS011;38719;51.418;7.286;2023-05-10T07:35:12;45.22;;;21.83;;
52854;SDS011;38719;51.418;7.286;2023-05-10T07:37:40;41.00;;;20.77;;
52854;SDS011;38719;51.418;7.286;2023-05-10T07:40:08;44.35;;;22.13;;
52854;SDS011;38719;51.418;7.286;2023-05-10T07:42:36;43.53;;;22.15;;
52854;SDS011;38719;51.418;7.286;2023-05-10T07:45:06;41.83;;;21.15;;
52854;SDS011;38719;51.418;7.286;2023-05-10T07:47:35;49.13;;;23.02;;
52854;SDS011;38719;51.418;7.286;2023-05-10T07:50:03;39.60;;;20.27;;
52854;SDS011;38719;51.418;7.286;2023-05-10T07:52:31;44.63;;;20.10;;
52854;SDS011;38719;51.418;7.286;2023-05-10T07:54:58;45.17;;;19.27;;
52854;SDS011;38719;51.418;7.286;2023-05-10T07:57:26;44.75;;;17.60;;
52854;SDS011;38719;51.418;7.286;2023-05-10T07:59:53;28.90;;;15.95;;
52854;SDS011;38719;51.418;7.286;2023-05-10T08:02:22;28.38;;;13.60;;
52854;SDS011;38719;51.418;7.286;2023-05-10T08:04:50;23.60;;;13.13;;
52854;SDS011;38719;51.418;7.286;2023-05-10T08:07:18;21.27;;;11.75;;
52854;SDS011;38719;51.418;7.286;2023-05-10T08:09:45;23.50;;;12.15;;
52854;SDS011;38719;51.418;7.286;2023-05-10T08:12:13;23.63;;;12.73;;
52854;SDS011;38719;51.418;7.286;2023-05-10T08:14:40;21.73;;;11.77;;
52854;SDS011;38719;51.418;7.286;2023-05-10T08:17:08;20.45;;;11.00;;
52854;SDS011;38719;51.418;7.286;2023-05-10T08:19:37;19.20;;;11.52;;
52854;SDS011;38719;51.418;7.286;2023-05-10T08:22:05;23.48;;;11.65;;
52854;SDS011;38719;51.418;7.286;2023-05-10T08:24:32;21.90;;;12.30;;
52854;SDS011;38719;51.418;7.286;2023-05-10T08:27:04;23.67;;;11.57;;
52854;SDS011;38719;51.418;7.286;2023-05-10T08:29:31;23.35;;;12.10;;
52854;SDS011;38719;51.418;7.286;2023-05-10T08:32:15;24.98;;;13.07;;
52854;SDS011;38719;51.418;7.286;2023-05-10T08:34:43;22.98;;;11.57;;
52854;SDS011;38719;51.418;7.286;2023-05-10T08:37:11;21.92;;;11.43;;
52854;SDS011;38719;51.418;7.286;2023-05-10T08:39:39;22.25;;;11.90;;
52854;SDS011;38719;51.418;7.286;2023-05-10T08:42:07;20.15;;;12.40;;
52854;SDS011;38719;51.418;7.286;2023-05-10T08:44:36;26.77;;;13.48;;
52854;SDS011;38719;51.418;7.286;2023-05-10T08:47:04;25.13;;;12.20;;
52854;SDS011;38719;51.418;7.286;2023-05-10T08:49:33;23.23;;;11.55;;
52854;SDS011;38719;51.418;7.286;2023-05-10T08:52:03;29.15;;;13.63;;
52854;SDS011;38719;51.418;7.286;2023-05-10T08:54:31;20.38;;;11.32;;
52854;SDS011;38719;51.418;7.286;2023-05-10T08:56:59;28.25;;;12.93;;
52854;SDS011;38719;51.418;7.286;2023-05-10T08:59:27;22.95;;;11.35;;
52854;SDS011;38719;51.418;7.286;2023-05-10T09:01:55;23.80;;;11.20;;
52854;SDS011;38719;51.418;7.286;2023-05-10T09:04:25;17.58;;;10.07;;
52854;SDS011;38719;51.418;7.286;2023-05-10T09:06:53;17.83;;;10.15;;
52854;SDS011;38719;51.418;7.286;2023-05-10T09:09:22;21.95;;;10.90;;
52854;SDS011;38719;51.418;7.286;2023-05-10T09:11:52;14.77;;;8.52;;
52854;SDS011;38719;51.418;7.286;2023-05-10T09:14:20;13.70;;;8.25;;
52854;SDS011;38719;51.418;7.286;2023-05-10T09:16:51;14.23;;;7.05;;
52854;SDS011;38719;51.418;7.286;2023-05-10T09:19:21;14.13;;;7.45;;
52854;SDS011;38719;51.418;7.286;2023-05-10T09:21:48;11.00;;;7.00;;
52854;SDS011;38719;51.418;7.286;2023-05-10T09:24:16;10.23;;;6.65;;
52854;SDS011;38719;51.418;7.286;2023-05-10T09:26:48;11.73;;;7.20;;
52854;SDS011;38719;51.418;7.286;2023-05-10T09:29:15;11.43;;;8.35;;
52854;SDS011;38719;51.418;7.286;2023-05-10T09:31:44;15.23;;;8.15;;
52854;SDS011;38719;51.418;7.286;2023-05-10T09:34:16;11.80;;;7.50;;
52854;SDS011;38719;51.418;7.286;2023-05-10T09:36:51;13.98;;;7.68;;
52854;SDS011;38719;51.418;7.286;2023-05-10T09:39:29;14.77;;;8.55;;
52854;SDS011;38719;51.418;7.286;2023-05-10T09:42:00;13.68;;;6.80;;
52854;SDS011;38719;51.418;7.286;2023-05-10T09:44:30;12.77;;;8.00;;
52854;SDS011;38719;51.418;7.286;2023-05-10T09:46:58;11.35;;;7.63;;
52854;SDS011;38719;51.418;7.286;2023-05-10T09:49:26;13.40;;;7.70;;
52854;SDS011;38719;51.418;7.286;2023-05-10T09:52:00;21.33;;;7.38;;
52854;SDS011;38719;51.418;7.286;2023-05-10T09:54:29;13.63;;;7.35;;
52854;SDS011;38719;51.418;7.286;2023-05-10T09:56:57;13.40;;;7.80;;
52854;SDS011;38719;51.418;7.286;2023-05-10T09:59:26;12.23;;;7.25;;
52854;SDS011;38719;51.418;7.286;2023-05-10T10:01:55;13.88;;;7.00;;
52854;SDS011;38719;51.418;7.286;2023-05-10T10:04:23;13.48;;;7.60;;
52854;SDS011;38719;51.418;7.286;2023-05-10T10:07:01;20.05;;;8.98;;
52854;SDS011;38719;51.418;7.286;2023-05-10T10:09:30;19.65;;;9.93;;
52854;SDS011;38719;51.418;7.286;2023-05-10T10:11:58;18.60;;;10.02;;
52854;SDS011;38719;51.418;7.286;2023-05-10T10:14:29;16.17;;;9.15;;
52854;SDS011;38719;51.418;7.286;2023-05-10T10:16:57;14.90;;;8.38;;
52854;SDS011;38719;51.418;7.286;2023-05-10T10:19:30;17.92;;;9.02;;
52854;SDS011;38719;51.418;7.286;2023-05-10T10:22:00;15.77;;;8.65;;
52854;SDS011;38719;51.418;7.286;2023-05-10T10:24:28;19.77;;;10.65;;
52854;SDS011;38719;51.418;7.286;2023-05-10T10:26:58;24.58;;;11.52;;
52854;SDS011;38719;51.418;7.286;2023-05-10T10:29:34;27.65;;;13.35;;
52854;SDS011;38719;51.418;7.286;2023-05-10T10:32:08;28.93;;;14.67;;
52854;SDS011;38719;51.418;7.286;2023-05-10T10:34:44;27.60;;;14.05;;
52854;SDS011;38719;51.418;7.286;2023-05-10T10:37:12;33.78;;;15.65;;
52854;SDS011;38719;51.418;7.286;2023-05-10T10:39:39;26.92;;;15.40;;
52854;SDS011;38719;51.418;7.286;2023-05-10T10:42:07;29.27;;;14.95;;
52854;SDS011;38719;51.418;7.286;2023-05-10T10:44:39;25.85;;;13.90;;
52854;SDS011;38719;51.418;7.286;2023-05-10T10:47:10;23.40;;;11.70;;
52854;SDS011;38719;51.418;7.286;2023-05-10T10:50:02;24.75;;;12.10;;
52854;SDS011;38719;51.418;7.286;2023-05-10T10:52:31;18.90;;;10.73;;
52854;SDS011;38719;51.418;7.286;2023-05-10T10:55:01;22.92;;;11.68;;
52854;SDS011;38719;51.418;7.286;2023-05-10T10:57:35;20.55;;;11.07;;
52854;SDS011;38719;51.418;7.286;2023-05-10T11:00:24;19.02;;;10.80;;
52854;SDS011;38719;51.418;7.286;2023-05-10T11:02:55;23.75;;;10.80;;
52854;SDS011;38719;51.418;7.286;2023-05-10T11:05:34;17.20;;;10.10;;
52854;SDS011;38719;51.418;7.286;2023-05-10T11:08:07;16.83;;;8.80;;
52854;SDS011;38719;51.418;7.286;2023-05-10T11:10:37;17.77;;;8.57;;
52854;SDS011;38719;51.418;7.286;2023-05-10T11:13:06;16.70;;;8.55;;
52854;SDS011;38719;51.418;7.286;2023-05-10T11:15:36;16.05;;;8.23;;
52854;SDS011;38719;51.418;7.286;2023-05-10T11:18:17;15.90;;;8.30;;
52854;SDS011;38719;51.418;7.286;2023-05-10T11:20:49;14.55;;;8.63;;
52854;SDS011;38719;51.418;7.286;2023-05-10T11:23:18;25.83;;;9.05;;
52854;SDS011;38719;51.418;7.286;2023-05-10T11:25:47;13.82;;;8.30;;
52854;SDS011;38719;51.418;7.286;2023-05-10T11:28:16;16.65;;;9.05;;
52854;SDS011;38719;51.418;7.286;2023-05-10T11:30:47;20.00;;;9.70;;
52854;SDS011;38719;51.418;7.286;2023-05-10T11:33:15;15.10;;;9.32;;
52854;SDS011;38719;51.418;7.286;2023-05-10T11:35:45;16.65;;;10.73;;
52854;SDS011;38719;51.418;7.286;2023-05-10T11:38:13;17.42;;;10.02;;
52854;SDS011;38719;51.418;7.286;2023-05-10T11:40:41;20.20;;;10.45;;
52854;SDS011;38719;51.418;7.286;2023-05-10T11:43:09;42.05;;;12.15;;
52854;SDS011;38719;51.418;7.286;2023-05-10T11:45:38;25.10;;;13.77;;
52854;SDS011;38719;51.418;7.286;2023-05-10T11:48:09;26.98;;;13.52;;
52854;SDS011;38719;51.418;7.286;2023-05-10T11:50:37;23.15;;;12.85;;
52854;SDS011;38719;51.418;7.286;2023-05-10T11:53:05;19.08;;;11.90;;
52854;SDS011;38719;51.418;7.286;2023-05-10T11:55:33;21.85;;;11.07;;
52854;SDS011;38719;51.418;7.286;2023-05-10T11:58:01;16.90;;;10.55;;
52854;SDS011;38719;51.418;7.286;2023-05-10T12:00:29;16.35;;;9.48;;
52854;SDS011;38719;51.418;7.286;2023-05-10T12:03:00;19.45;;;9.93;;
52854;SDS011;38719;51.418;7.286;2023-05-10T12:05:32;18.80;;;10.85;;
52854;SDS011;38719;51.418;7.286;2023-05-10T12:08:13;16.33;;;10.65;;
52854;SDS011;38719;51.418;7.286;2023-05-10T12:10:41;22.08;;;11.23;;
52854;SDS011;38719;51.418;7.286;2023-05-10T12:13:11;16.65;;;10.60;;
52854;SDS011;38719;51.418;7.286;2023-05-10T12:15:41;20.92;;;10.50;;
52854;SDS011;38719;51.418;7.286;2023-05-10T12:18:09;17.20;;;10.57;;
52854;SDS011;38719;51.418;7.286;2023-05-10T12:20:39;18.75;;;11.40;;
52854;SDS011;38719;51.418;7.286;2023-05-10T12:23:08;20.60;;;11.85;;
52854;SDS011;38719;51.418;7.286;2023-05-10T12:25:37;18.90;;;11.23;;
52854;SDS011;38719;51.418;7.286;2023-05-10T12:28:07;18.58;;;11.57;;
52854;SDS011;38719;51.418;7.286;2023-05-10T12:30:36;19.33;;;12.35;;
52854;SDS011;38719;51.418;7.286;2023-05-10T12:33:07;20.00;;;11.82;;
52854;SDS011;38719;51.418;7.286;2023-05-10T12:35:44;16.92;;;11.48;;
52854;SDS011;38719;51.418;7.286;2023-05-10T12:38:24;18.20;;;11.07;;
52854;SDS011;38719;51.418;7.286;2023-05-10T12:40:56;14.90;;;10.15;;
52854;SDS011;38719;51.418;7.286;2023-05-10T12:43:24;14.38;;;9.20;;
52854;SDS011;38719;51.418;7.286;2023-05-10T12:45:52;20.52;;;9.85;;
52854;SDS011;38719;51.418;7.286;2023-05-10T12:48:19;13.30;;;8.85;;
52854;SDS011;38719;51.418;7.286;2023-05-10T12:50:48;17.40;;;9.05;;
52854;SDS011;38719;51.418;7.286;2023-05-10T12:53:16;13.32;;;9.15;;
52854;SDS011;38719;51.418;7.286;2023-05-10T12:55:44;13.20;;;8.57;;
52854;SDS011;38719;51.418;7.286;2023-05-10T12:58:11;15.90;;;9.95;;
52854;SDS011;38719;51.418;7.286;2023-05-10T13:00:59;27.27;;;13.98;;
52854;SDS011;38719;51.418;7.286;2023-05-10T13:03:26;17.83;;;10.95;;
52854;SDS011;38719;51.418;7.286;2023-05-10T13:05:55;33.28;;;15.70;;
52854;SDS011;38719;51.418;7.286;2023-05-10T13:08:23;23.88;;;12.90;;
52854;SDS011;38719;51.418;7.286;2023-05-10T13:10:51;35.35;;;14.30;;
52854;SDS011;38719;51.418;7.286;2023-05-10T13:13:19;24.40;;;12.10;;
52854;SDS011;38719;51.418;7.286;2023-05-10T13:15:46;17.88;;;11.07;;
52854;SDS011;38719;51.418;7.286;2023-05-10T13:18:14;18.50;;;10.70;;
52854;SDS011;38719;51.418;7.286;2023-05-10T13:20:41;12.95;;;8.85;;
52854;SDS011;38719;51.418;7.286;2023-05-10T13:23:11;12.05;;;8.52;;
52854;SDS011;38719;51.418;7.286;2023-05-10T13:25:39;15.40;;;8.23;;
52854;SDS011;38719;51.418;7.286;2023-05-10T13:28:06;14.52;;;9.00;;
52854;SDS011;38719;51.418;7.286;2023-05-10T13:30:34;13.00;;;8.80;;
52854;SDS011;38719;51.418;7.286;2023-05-10T13:33:01;18.85;;;10.13;;
52854;SDS011;38719;51.418;7.286;2023-05-10T13:35:29;13.18;;;9.20;;
52854;SDS011;38719;51.418;7.286;2023-05-10T13:37:56;14.13;;;9.00;;
52854;SDS011;38719;51.418;7.286;2023-05-10T13:40:25;10.85;;;7.57;;
52854;SDS011;38719;51.418;7.286;2023-05-10T13:42:54;11.43;;;8.73;;
52854;SDS011;38719;51.418;7.286;2023-05-10T13:45:21;11.95;;;7.85;;
52854;SDS011;38719;51.418;7.286;2023-05-10T13:47:49;11.60;;;8.18;;
52854;SDS011;38719;51.418;7.286;2023-05-10T13:50:16;10.95;;;7.35;;
52854;SDS011;38719;51.418;7.286;2023-05-10T13:52:44;13.60;;;7.15;;
52854;SDS011;38719;51.418;7.286;2023-05-10T13:55:12;12.48;;;6.55;;
52854;SDS011;38719;51.418;7.286;2023-05-10T13:57:41;12.95;;;6.85;;
52854;SDS011;38719;51.418;7.286;2023-05-10T14:00:09;14.95;;;6.40;;
52854;SDS011;38719;51.418;7.286;2023-05-10T14:02:37;11.90;;;7.00;;
52854;SDS011;38719;51.418;7.286;2023-05-10T14:05:05;9.50;;;6.65;;
52854;SDS011;38719;51.418;7.286;2023-05-10T14:07:33;6.82;;;5.72;;
52854;SDS011;38719;51.418;7.286;2023-05-10T14:10:01;13.77;;;6.68;;
52854;SDS011;38719;51.418;7.286;2023-05-10T14:12:28;12.82;;;5.53;;
52854;SDS011;38719;51.418;7.286;2023-05-10T14:14:57;8.73;;;5.47;;
52854;SDS011;38719;51.418;7.286;2023-05-10T14:17:25;6.25;;;5.47;;
52854;SDS011;38719;51.418;7.286;2023-05-10T14:19:52;7.78;;;5.13;;
52854;SDS011;38719;51.418;7.286;2023-05-10T14:22:20;6.55;;;4.85;;
52854;SDS011;38719;51.418;7.286;2023-05-10T14:24:48;6.35;;;4.20;;
52854;SDS011;38719;51.418;7.286;2023-05-10T14:27:16;5.97;;;3.80;;
52854;SDS011;38719;51.418;7.286;2023-05-10T14:29:44;5.63;;;3.75;;
52854;SDS011;38719;51.418;7.286;2023-05-10T14:32:13;6.63;;;3.83;;
52854;SDS011;38719;51.418;7.286;2023-05-10T14:34:40;6.75;;;4.00;;
52854;SDS011;38719;51.418;7.286;2023-05-10T14:37:09;5.63;;;3.90;;
52854;SDS011;38719;51.418;7.286;2023-05-10T14:39:37;8.75;;;3.88;;
52854;SDS011;38719;51.418;7.286;2023-05-10T14:42:05;4.13;;;3.60;;
52854;SDS011;38719;51.418;7.286;2023-05-10T14:44:32;4.45;;;3.33;;
52854;SDS011;38719;51.418;7.286;2023-05-10T14:47:00;8.60;;;4.35;;
52854;SDS011;38719;51.418;7.286;2023-05-10T14:49:29;7.53;;;4.40;;
52854;SDS011;38719;51.418;7.286;2023-05-10T14:51:56;4.55;;;3.20;;